createdAt,value
2018-02-23T00:00:06.178Z,8.77
2018-02-23T00:02:40.904Z,8.93
2018-02-23T00:05:14.954Z,9.03
2018-02-23T00:07:49.624Z,8.50
2018-02-23T00:10:23.646Z,9.33
2018-02-23T00:12:57.459Z,8.60
2018-02-23T00:15:31.744Z,9.67
2018-02-23T00:18:06.464Z,9.40
2018-02-23T00:20:40.274Z,8.73
2018-02-23T00:23:14.710Z,9.37
2018-02-23T00:25:48.618Z,8.70
2018-02-23T00:28:23.344Z,8.80
2018-02-23T00:30:58.004Z,9.23
2018-02-23T00:33:32.114Z,8.50
2018-02-23T00:36:06.704Z,8.40
2018-02-23T00:38:41.452Z,8.40
2018-02-23T00:41:16.048Z,8.57
2018-02-23T00:43:50.492Z,8.27
2018-02-23T00:46:25.094Z,7.70
2018-02-23T00:48:59.807Z,8.20
2018-02-23T00:51:33.966Z,8.23
2018-02-23T00:54:09.361Z,8.10
2018-02-23T00:56:44.524Z,8.53
2018-02-23T00:59:18.218Z,7.57
2018-02-23T01:01:53.105Z,7.80
2018-02-23T01:04:27.792Z,8.13
2018-02-23T01:07:02.796Z,7.67
2018-02-23T01:09:37.226Z,7.47
2018-02-23T01:12:11.419Z,8.20
2018-02-23T01:14:45.460Z,7.13
2018-02-23T01:17:19.160Z,7.23
2018-02-23T01:19:52.982Z,7.97
2018-02-23T01:22:26.865Z,7.43
2018-02-23T01:25:00.980Z,7.30
2018-02-23T01:27:36.007Z,6.70
2018-02-23T01:30:09.823Z,7.70
2018-02-23T01:32:44.233Z,7.33
2018-02-23T01:35:17.951Z,7.90
2018-02-23T01:37:52.883Z,7.43
2018-02-23T01:40:27.435Z,7.33
2018-02-23T01:43:02.722Z,8.33
2018-02-23T01:45:37.467Z,7.03
2018-02-23T01:48:11.552Z,7.57
2018-02-23T01:50:57.771Z,7.10
2018-02-23T01:53:31.883Z,7.17
2018-02-23T01:56:07.310Z,6.93
2018-02-23T01:58:42.957Z,8.13
2018-02-23T02:01:16.674Z,6.40
2018-02-23T02:03:52.416Z,7.23
2018-02-23T02:06:26.931Z,7.30
2018-02-23T02:09:00.454Z,7.97
2018-02-23T02:11:34.568Z,6.93
2018-02-23T02:14:08.347Z,7.70
2018-02-23T02:16:42.767Z,7.00
2018-02-23T02:19:17.391Z,8.13
2018-02-23T02:21:51.815Z,8.37
2018-02-23T02:24:26.533Z,7.83
2018-02-23T02:27:02.094Z,8.93
2018-02-23T02:29:36.836Z,8.50
2018-02-23T02:32:12.043Z,8.97
2018-02-23T02:34:46.384Z,8.03
2018-02-23T02:37:20.568Z,8.67
2018-02-23T02:39:55.001Z,8.90
2018-02-23T02:42:28.902Z,8.27
2018-02-23T02:45:03.053Z,9.37
2018-02-23T02:47:37.639Z,9.30
2018-02-23T02:50:12.492Z,10.03
2018-02-23T02:52:47.117Z,9.37
2018-02-23T02:55:21.535Z,8.40
2018-02-23T02:57:56.121Z,9.03
2018-02-23T03:00:30.969Z,8.87
2018-02-23T03:03:05.588Z,9.27
2018-02-23T03:05:40.633Z,8.97
2018-02-23T03:08:14.529Z,9.00
2018-02-23T03:10:49.158Z,9.00
2018-02-23T03:13:23.432Z,9.60
2018-02-23T03:15:57.071Z,9.17
2018-02-23T03:18:31.517Z,9.67
2018-02-23T03:21:06.549Z,9.83
2018-02-23T03:23:40.427Z,10.07
2018-02-23T03:26:14.471Z,10.20
2018-02-23T03:28:48.570Z,10.23
2018-02-23T03:31:23.091Z,10.67
2018-02-23T03:33:56.876Z,10.70
2018-02-23T03:36:31.520Z,9.87
2018-02-23T03:39:05.416Z,10.63
2018-02-23T03:41:41.608Z,9.50
2018-02-23T03:44:16.510Z,9.73
2018-02-23T03:46:51.420Z,10.27
2018-02-23T03:49:25.141Z,9.80
2018-02-23T03:52:00.156Z,10.70
2018-02-23T03:54:34.988Z,10.07
2018-02-23T03:57:09.004Z,10.50
2018-02-23T03:59:43.636Z,10.83
2018-02-23T04:02:17.853Z,10.47
2018-02-23T04:04:53.452Z,10.43
2018-02-23T04:07:28.217Z,10.87
2018-02-23T04:10:02.526Z,10.87
2018-02-23T04:12:36.646Z,10.20
2018-02-23T04:15:11.184Z,10.67
2018-02-23T04:17:45.808Z,11.07
2018-02-23T04:20:19.454Z,10.70
2018-02-23T04:22:53.291Z,9.97
2018-02-23T04:25:27.122Z,10.73
2018-02-23T04:28:02.021Z,11.30
2018-02-23T04:30:36.121Z,10.73
2018-02-23T04:33:11.688Z,10.57
2018-02-23T04:35:46.410Z,11.17
2018-02-23T04:38:22.784Z,11.17
2018-02-23T04:40:57.319Z,11.70
2018-02-23T04:43:33.383Z,10.40
2018-02-23T04:46:10.623Z,10.57
2018-02-23T04:48:44.480Z,11.57
2018-02-23T04:51:18.860Z,11.77
2018-02-23T04:53:53.086Z,11.03
2018-02-23T04:56:26.903Z,10.33
2018-02-23T04:59:00.686Z,10.70
2018-02-23T05:01:35.417Z,9.60
2018-02-23T05:04:09.912Z,11.20
2018-02-23T05:06:43.850Z,10.53
2018-02-23T05:09:18.759Z,10.90
2018-02-23T05:11:53.932Z,11.20
2018-02-23T05:14:28.436Z,10.53
2018-02-23T05:17:02.337Z,11.73
2018-02-23T05:19:37.347Z,11.27
2018-02-23T05:22:11.991Z,10.93
2018-02-23T05:24:46.654Z,10.97
2018-02-23T05:27:21.236Z,11.30
2018-02-23T05:29:56.875Z,11.10
2018-02-23T05:32:32.498Z,12.13
2018-02-23T05:35:06.677Z,11.63
2018-02-23T05:37:41.485Z,10.30
2018-02-23T05:40:16.516Z,10.80
2018-02-23T05:42:50.874Z,10.93
2018-02-23T05:45:24.635Z,10.60
2018-02-23T05:47:59.346Z,11.33
2018-02-23T05:50:34.189Z,11.50
2018-02-23T05:53:07.883Z,11.73
2018-02-23T05:55:42.099Z,12.17
2018-02-23T05:58:16.728Z,11.73
2018-02-23T06:00:53.328Z,11.03
2018-02-23T06:03:28.162Z,11.90
2018-02-23T06:06:02.244Z,11.47
2018-02-23T06:08:37.407Z,11.90
2018-02-23T06:11:12.207Z,11.43
2018-02-23T06:13:46.627Z,10.17
2018-02-23T06:16:28.027Z,11.27
2018-02-23T06:19:03.902Z,12.47
2018-02-23T06:21:37.664Z,11.90
2018-02-23T06:24:13.008Z,11.90
2018-02-23T06:26:47.012Z,11.73
2018-02-23T06:29:21.640Z,13.00
2018-02-23T06:31:56.565Z,12.83
2018-02-23T06:34:32.356Z,12.17
2018-02-23T06:37:06.945Z,11.87
2018-02-23T06:39:41.692Z,11.73
2018-02-23T06:42:15.979Z,12.90
2018-02-23T06:44:51.524Z,13.57
2018-02-23T06:47:26.373Z,12.33
2018-02-23T06:50:00.691Z,12.07
2018-02-23T06:52:34.991Z,12.70
2018-02-23T06:55:08.720Z,13.03
2018-02-23T06:57:43.828Z,12.77
2018-02-23T07:00:17.871Z,13.03
2018-02-23T07:02:52.904Z,12.03
2018-02-23T07:05:27.521Z,12.43
2018-02-23T07:08:01.711Z,12.70
2018-02-23T07:10:36.228Z,13.37
2018-02-23T07:13:11.035Z,13.47
2018-02-23T07:15:45.694Z,13.90
2018-02-23T07:18:20.649Z,13.63
2018-02-23T07:20:56.901Z,12.40
2018-02-23T07:23:32.509Z,13.77
2018-02-23T07:26:07.184Z,13.00
2018-02-23T07:28:41.751Z,13.33
2018-02-23T07:31:16.192Z,12.77
2018-02-23T07:33:51.260Z,12.20
2018-02-23T07:36:25.855Z,13.23
2018-02-23T07:39:00.010Z,13.23
2018-02-23T07:41:35.714Z,14.17
2018-02-23T07:44:11.990Z,12.33
2018-02-23T07:46:46.705Z,14.70
2018-02-23T07:49:21.660Z,12.37
2018-02-23T07:51:55.541Z,11.93
2018-02-23T07:54:29.643Z,14.27
2018-02-23T07:57:03.790Z,14.47
2018-02-23T07:59:37.666Z,14.63
2018-02-23T08:02:13.626Z,14.80
2018-02-23T08:04:49.196Z,14.30
2018-02-23T08:07:24.013Z,14.07
2018-02-23T08:09:57.912Z,13.43
2018-02-23T08:12:33.489Z,14.30
2018-02-23T08:15:07.162Z,14.30
2018-02-23T08:17:42.718Z,14.50
2018-02-23T08:20:16.506Z,14.50
2018-02-23T08:22:50.228Z,13.70
2018-02-23T08:25:24.394Z,13.80
2018-02-23T08:27:59.151Z,15.33
2018-02-23T08:30:33.159Z,14.67
2018-02-23T08:33:08.016Z,14.63
2018-02-23T08:35:42.650Z,14.30
2018-02-23T08:38:17.444Z,14.63
2018-02-23T08:40:52.072Z,15.20
2018-02-23T08:43:27.428Z,14.40
2018-02-23T08:46:02.743Z,15.83
2018-02-23T08:48:37.499Z,15.07
2018-02-23T08:51:13.028Z,15.53
2018-02-23T08:53:47.724Z,14.13
2018-02-23T08:56:23.094Z,15.10
2018-02-23T08:58:57.396Z,15.00
2018-02-23T09:01:32.963Z,15.27
2018-02-23T09:04:06.967Z,15.70
2018-02-23T09:06:42.630Z,14.90
2018-02-23T09:09:17.143Z,16.93
2018-02-23T09:11:51.734Z,15.27
2018-02-23T09:14:25.571Z,15.80
2018-02-23T09:17:00.477Z,16.10
2018-02-23T09:19:34.998Z,15.13
2018-02-23T09:22:10.749Z,16.37
2018-02-23T09:24:46.088Z,15.20
2018-02-23T09:27:21.149Z,15.10
2018-02-23T09:29:55.140Z,15.07
2018-02-23T09:32:38.913Z,15.70
2018-02-23T09:35:13.485Z,16.17
2018-02-23T09:37:48.228Z,15.57
2018-02-23T09:40:23.053Z,15.90
2018-02-23T09:42:56.846Z,16.00
2018-02-23T09:45:32.823Z,16.13
2018-02-23T09:48:06.612Z,16.23
2018-02-23T09:50:41.447Z,16.93
2018-02-23T09:53:16.884Z,15.53
2018-02-23T09:55:52.222Z,15.27
2018-02-23T09:58:26.040Z,15.60
2018-02-23T10:01:00.215Z,17.13
2018-02-23T10:03:34.768Z,15.67
2018-02-23T10:06:08.674Z,17.47
2018-02-23T10:08:43.185Z,18.37
2018-02-23T10:11:17.846Z,17.47
2018-02-23T10:13:51.944Z,17.23
2018-02-23T10:16:26.040Z,16.90
2018-02-23T10:19:01.444Z,16.63
2018-02-23T10:21:36.012Z,16.60
2018-02-23T10:24:10.225Z,17.50
2018-02-23T10:26:44.867Z,16.67
2018-02-23T10:29:19.261Z,16.23
2018-02-23T10:31:53.092Z,16.43
2018-02-23T10:34:27.792Z,17.23
2018-02-23T10:37:03.035Z,18.07
2018-02-23T10:39:36.659Z,17.27
2018-02-23T10:42:12.268Z,17.53
2018-02-23T10:44:45.974Z,16.37
2018-02-23T10:47:19.986Z,16.53
2018-02-23T10:49:53.795Z,16.70
2018-02-23T10:52:27.803Z,19.80
2018-02-23T10:55:01.526Z,15.73
2018-02-23T10:57:35.631Z,17.57
2018-02-23T11:00:10.443Z,17.37
2018-02-23T11:02:45.079Z,17.50
2018-02-23T11:05:20.232Z,18.27
2018-02-23T11:07:54.978Z,17.47
2018-02-23T11:10:29.360Z,18.30
2018-02-23T11:13:04.218Z,18.40
2018-02-23T11:15:39.010Z,17.67
2018-02-23T11:18:16.804Z,18.40
2018-02-23T11:20:50.518Z,18.10
2018-02-23T11:23:25.349Z,17.23
2018-02-23T11:26:00.494Z,18.70
2018-02-23T11:28:35.516Z,17.67
2018-02-23T11:31:10.466Z,18.07
2018-02-23T11:33:44.480Z,17.40
2018-02-23T11:36:18.982Z,17.17
2018-02-23T11:38:54.985Z,17.77
2018-02-23T11:41:29.242Z,18.67
2018-02-23T11:44:04.487Z,18.13
2018-02-23T11:46:39.367Z,18.43
2018-02-23T11:49:13.925Z,17.77
2018-02-23T11:51:48.615Z,17.73
2018-02-23T11:54:22.786Z,16.23
2018-02-23T11:56:56.763Z,18.93
2018-02-23T11:59:34.371Z,17.63
2018-02-23T12:02:09.212Z,18.63
2018-02-23T12:04:44.370Z,17.87
2018-02-23T12:07:18.040Z,17.20
2018-02-23T12:09:53.081Z,18.07
2018-02-23T12:12:27.723Z,17.20
2018-02-23T12:15:03.355Z,18.10
2018-02-23T12:17:37.254Z,17.23
2018-02-23T12:20:12.924Z,18.63
2018-02-23T12:22:46.934Z,18.40
2018-02-23T12:25:21.337Z,18.97
2018-02-23T12:27:55.756Z,17.33
2018-02-23T12:30:29.596Z,18.80
2018-02-23T12:33:04.383Z,17.93
2018-02-23T12:35:39.212Z,16.50
2018-02-23T12:38:13.936Z,18.43
2018-02-23T12:40:48.590Z,17.57
2018-02-23T12:43:26.083Z,18.70
2018-02-23T12:46:02.238Z,18.53
2018-02-23T12:48:36.330Z,18.70
2018-02-23T12:51:10.739Z,18.27
2018-02-23T12:53:46.822Z,18.80
2018-02-23T12:56:21.413Z,19.13
2018-02-23T12:58:56.160Z,19.50
2018-02-23T13:01:33.035Z,18.43
2018-02-23T13:04:07.763Z,19.47
2018-02-23T13:06:43.906Z,18.53
2018-02-23T13:09:18.955Z,18.90
2018-02-23T13:11:53.990Z,18.87
2018-02-23T13:14:35.071Z,19.00
2018-02-23T13:17:10.204Z,18.73
2018-02-23T13:19:44.749Z,20.00
2018-02-23T13:22:18.698Z,19.17
2018-02-23T13:24:53.772Z,18.13
2018-02-23T13:27:28.379Z,18.97
2018-02-23T13:30:03.514Z,18.73
2018-02-23T13:32:37.607Z,19.53
2018-02-23T13:35:13.987Z,18.43
2018-02-23T13:37:48.839Z,18.73
2018-02-23T13:40:23.648Z,18.90
2018-02-23T13:42:57.355Z,19.20
2018-02-23T13:45:33.518Z,18.73
2018-02-23T13:48:08.453Z,18.37
2018-02-23T13:50:42.568Z,18.30
2018-02-23T13:53:18.772Z,18.57
2018-02-23T13:55:53.160Z,17.90
2018-02-23T13:58:26.935Z,17.80
2018-02-23T14:01:02.727Z,18.83
2018-02-23T14:03:38.749Z,17.53
2018-02-23T14:06:13.574Z,17.73
2018-02-23T14:08:47.999Z,17.93
2018-02-23T14:11:22.835Z,17.73
2018-02-23T14:13:57.755Z,17.73
2018-02-23T14:16:32.669Z,17.83
2018-02-23T14:19:07.099Z,17.50
2018-02-23T14:21:41.426Z,18.30
2018-02-23T14:24:15.620Z,18.83
2018-02-23T14:26:49.616Z,16.63
2018-02-23T14:29:23.646Z,18.03
2018-02-23T14:31:58.163Z,17.83
2018-02-23T14:34:33.097Z,18.20
2018-02-23T14:37:07.819Z,18.13
2018-02-23T14:39:42.650Z,17.73
2018-02-23T14:42:16.556Z,19.03
2018-02-23T14:44:51.884Z,18.67
2018-02-23T14:47:25.609Z,18.17
2018-02-23T14:50:11.512Z,18.77
2018-02-23T14:52:45.831Z,18.47
2018-02-23T14:55:19.933Z,18.63
2018-02-23T14:57:55.247Z,18.40
2018-02-23T15:00:28.961Z,18.70
2018-02-23T15:03:02.764Z,19.33
2018-02-23T15:05:36.463Z,19.40
2018-02-23T15:08:12.020Z,18.07
2018-02-23T15:10:46.632Z,18.70
2018-02-23T15:13:20.966Z,18.93
2018-02-23T15:15:55.383Z,17.80
2018-02-23T15:18:29.272Z,19.80
2018-02-23T15:21:04.020Z,17.80
2018-02-23T15:23:38.792Z,19.17
2018-02-23T15:26:13.162Z,18.47
2018-02-23T15:28:47.992Z,17.93
2018-02-23T15:31:34.700Z,19.10
2018-02-23T15:34:09.264Z,17.60
2018-02-23T15:36:43.652Z,17.20
2018-02-23T15:39:17.333Z,18.97
2018-02-23T15:41:52.874Z,19.33
2018-02-23T15:44:27.623Z,19.27
2018-02-23T15:47:02.575Z,18.30
2018-02-23T15:49:42.172Z,19.67
2018-02-23T15:52:17.329Z,18.63
2018-02-23T15:54:52.754Z,18.47
2018-02-23T15:57:28.528Z,19.20
2018-02-23T16:00:03.252Z,18.83
2018-02-23T16:02:37.752Z,18.13
2018-02-23T16:05:13.727Z,18.37
2018-02-23T16:07:47.610Z,19.53
2018-02-23T16:10:22.498Z,19.20
2018-02-23T16:12:56.912Z,18.40
2018-02-23T16:15:31.196Z,19.53
2018-02-23T16:18:05.722Z,18.87
2018-02-23T16:20:43.299Z,18.70
2018-02-23T16:23:17.904Z,19.93
2018-02-23T16:25:53.490Z,19.83
2018-02-23T16:28:29.511Z,19.70
2018-02-23T16:31:04.341Z,19.40
2018-02-23T16:33:39.192Z,18.57
2018-02-23T16:36:15.154Z,19.43
2018-02-23T16:38:50.387Z,19.90
2018-02-23T16:41:24.487Z,19.63
2018-02-23T16:43:59.223Z,19.60
2018-02-23T16:46:34.040Z,19.20
2018-02-23T16:49:08.757Z,19.47
2018-02-23T16:51:42.965Z,20.93
2018-02-23T16:54:17.319Z,19.10
2018-02-23T16:56:51.202Z,20.83
2018-02-23T16:59:25.927Z,20.00
2018-02-23T17:02:00.066Z,19.73
2018-02-23T17:04:34.558Z,18.97
2018-02-23T17:07:09.200Z,19.77
2018-02-23T17:09:43.501Z,19.97
2018-02-23T17:12:17.200Z,21.23
2018-02-23T17:14:53.072Z,19.67
2018-02-23T17:17:27.671Z,21.13
2018-02-23T17:20:02.502Z,20.40
2018-02-23T17:22:36.940Z,20.67
2018-02-23T17:25:11.843Z,21.70
2018-02-23T17:27:46.272Z,20.90
2018-02-23T17:30:19.999Z,20.03
2018-02-23T17:32:54.720Z,19.27
2018-02-23T17:35:28.710Z,19.70
2018-02-23T17:38:03.125Z,20.53
2018-02-23T17:40:37.661Z,19.83
2018-02-23T17:43:12.790Z,21.07
2018-02-23T17:45:47.410Z,21.37
2018-02-23T17:48:22.341Z,21.70
2018-02-23T17:50:56.674Z,19.00
2018-02-23T17:53:31.413Z,20.53
2018-02-23T17:56:05.528Z,19.50
2018-02-23T17:58:39.208Z,19.40
2018-02-23T18:01:14.985Z,20.37
2018-02-23T18:03:49.670Z,20.40
2018-02-23T18:06:23.488Z,19.60
2018-02-23T18:08:57.189Z,20.67
2018-02-23T18:11:31.511Z,20.90
2018-02-23T18:14:05.426Z,21.67
2018-02-23T18:16:40.257Z,21.03
2018-02-23T18:19:14.859Z,20.57
2018-02-23T18:21:48.663Z,21.13
2018-02-23T18:24:24.540Z,20.10
2018-02-23T18:26:58.698Z,20.57
2018-02-23T18:29:34.095Z,20.53
2018-02-23T18:45:01.611Z,20.70
2018-02-23T18:47:35.438Z,19.10
2018-02-23T18:50:09.532Z,20.63
2018-02-23T18:52:43.846Z,19.43
2018-02-23T18:55:18.460Z,19.77
2018-02-23T18:57:52.587Z,20.60
2018-02-23T19:00:26.835Z,19.97
2018-02-23T19:03:01.312Z,20.93
2018-02-23T19:05:35.935Z,20.77
2018-02-23T19:08:09.951Z,20.33
2018-02-23T19:10:44.580Z,19.70
2018-02-23T19:13:19.196Z,19.90
2018-02-23T19:15:53.102Z,19.90
2018-02-23T19:18:26.923Z,19.70
2018-02-23T19:21:01.316Z,21.20
2018-02-23T19:23:35.132Z,21.73
2018-02-23T19:26:09.235Z,18.53
2018-02-23T19:28:44.187Z,20.07
2018-02-23T19:31:18.829Z,19.93
2018-02-23T19:33:54.282Z,18.83
2018-02-23T19:36:28.947Z,19.93
2018-02-23T19:39:04.333Z,21.40
2018-02-23T19:41:38.844Z,20.07
2018-02-23T19:44:13.659Z,20.07
2018-02-23T19:46:47.260Z,21.20
2018-02-23T19:49:21.981Z,20.20
2018-02-23T19:51:56.816Z,20.97
2018-02-23T19:54:32.347Z,20.63
2018-02-23T19:57:05.973Z,20.97
2018-02-23T19:59:41.095Z,19.93
2018-02-23T20:02:15.316Z,21.13
2018-02-23T20:04:49.008Z,20.77
2018-02-23T20:07:23.628Z,21.90
2018-02-23T20:10:01.589Z,20.47
2018-02-23T20:12:36.671Z,22.37
2018-02-23T20:15:13.720Z,21.50
2018-02-23T20:17:47.584Z,22.53
2018-02-23T20:20:22.008Z,22.07
2018-02-23T20:22:57.721Z,21.83
2018-02-23T20:25:33.028Z,21.53
2018-02-23T20:28:07.179Z,20.70
2018-02-23T20:30:43.304Z,22.77
2018-02-23T20:33:18.077Z,22.00
2018-02-23T20:35:53.989Z,21.90
2018-02-23T20:38:27.933Z,22.53
2018-02-23T20:41:03.786Z,22.77
2018-02-23T20:43:38.296Z,23.40
2018-02-23T20:46:15.132Z,22.67
2018-02-23T20:48:49.014Z,22.63
2018-02-23T20:51:24.274Z,22.57
2018-02-23T20:53:58.444Z,24.23
2018-02-23T20:56:33.182Z,22.87
2018-02-23T20:59:07.995Z,22.70
2018-02-23T21:01:42.099Z,22.57
2018-02-23T21:04:16.727Z,23.07
2018-02-23T21:06:51.986Z,24.10
2018-02-23T21:09:25.878Z,24.93
2018-02-23T21:12:02.532Z,21.97
2018-02-23T21:14:36.979Z,22.77
2018-02-23T21:17:12.490Z,22.33
2018-02-23T21:19:46.013Z,23.63
2018-02-23T21:22:20.544Z,23.47
2018-02-23T21:24:55.351Z,23.40
2018-02-23T21:27:29.240Z,23.60
2018-02-23T21:30:02.960Z,23.70
2018-02-23T21:32:36.762Z,21.83
2018-02-23T21:35:11.692Z,23.20
2018-02-23T21:37:46.396Z,22.60
2018-02-23T21:40:21.161Z,24.37
2018-02-23T21:42:55.073Z,23.80
2018-02-23T21:45:29.258Z,22.23
2018-02-23T21:48:03.284Z,22.20
2018-02-23T21:50:37.100Z,23.90
2018-02-23T21:53:12.220Z,23.10
2018-02-23T21:55:46.132Z,22.87
2018-02-23T21:58:21.776Z,22.40
2018-02-23T22:00:55.568Z,23.40
2018-02-23T22:03:30.012Z,24.47
2018-02-23T22:06:04.623Z,23.43
2018-02-23T22:08:38.625Z,24.03
2018-02-23T22:11:13.255Z,22.93
2018-02-23T22:13:48.235Z,21.17
2018-02-23T22:16:22.701Z,22.90
2018-02-23T22:18:57.327Z,23.70
2018-02-23T22:21:31.972Z,23.87
2018-02-23T22:24:05.958Z,22.70
2018-02-23T22:26:40.791Z,23.60
2018-02-23T22:29:14.595Z,24.73
2018-02-23T22:31:48.605Z,24.87
2018-02-23T22:34:22.818Z,22.13
2018-02-23T22:36:56.527Z,23.97
2018-02-23T22:39:30.535Z,23.47
2018-02-23T22:42:04.540Z,22.03
2018-02-23T22:44:39.163Z,24.07
2018-02-23T22:47:14.316Z,22.03
2018-02-23T22:49:49.024Z,23.13
2018-02-23T22:52:23.136Z,24.17
2018-02-23T22:54:56.945Z,22.50
2018-02-23T22:57:31.175Z,23.87
2018-02-23T23:00:05.668Z,24.10
2018-02-23T23:02:41.131Z,23.17
2018-02-23T23:05:15.675Z,24.23
2018-02-23T23:07:50.388Z,23.27
2018-02-23T23:10:24.995Z,23.37
2018-02-23T23:26:06.752Z,24.50
2018-02-23T23:28:40.595Z,23.53
2018-02-23T23:31:14.681Z,23.10
2018-02-23T23:33:48.388Z,23.13
2018-02-23T23:36:23.723Z,23.00
2018-02-23T23:38:57.314Z,22.10
2018-02-23T23:41:32.679Z,23.97
2018-02-23T23:44:06.664Z,23.67
2018-02-23T23:46:42.423Z,22.40
2018-02-23T23:49:16.964Z,21.17
2018-02-23T23:51:51.562Z,23.03
2018-02-23T23:54:25.634Z,23.27
2018-02-23T23:56:59.280Z,23.40
2018-02-23T23:59:34.422Z,23.37
